Time;durP1;ratioP1;P1;durP2;ratioP2;P2;SDS_P1;SDS_P2;PMS_P1;PMS_P2;Temp;Humidity;BMP_temperature;BMP_pressure;BME280_temperature;BME280_humidity;BME280_pressure;Samples;Min_cycle;Max_cycle;Signal;HPM_P1;HPM_P2
2023/05/04 00:00:24;;;;;;;6.80;3.00;;;10.30;56.90;;;;;;5044904;28;20463;-78
2023/05/04 00:02:52;;;;;;;6.97;3.03;;;10.30;57.00;;;;;;5029506;28;20153;-78
2023/05/04 00:05:19;;;;;;;8.15;3.45;;;10.30;57.00;;;;;;5047976;28;20053;-78
2023/05/04 00:07:46;;;;;;;8.47;3.10;;;10.30;57.10;;;;;;5046167;28;20111;-78
2023/05/04 00:10:13;;;;;;;6.70;2.83;;;10.30;57.10;;;;;;5029542;28;20496;-79
2023/05/04 00:12:41;;;;;;;7.10;2.92;;;10.30;57.20;;;;;;5029235;28;20136;-79
2023/05/04 00:15:08;;;;;;;7.38;3.10;;;10.30;57.20;;;;;;5045987;28;20159;-78
2023/05/04 00:17:35;;;;;;;7.95;3.10;;;10.20;57.30;;;;;;5044883;28;20049;-78
2023/05/04 00:20:04;;;;;;;8.50;3.27;;;10.10;57.40;;;;;;5038956;28;20053;-78
2023/05/04 00:22:30;;;;;;;7.07;3.13;;;10.10;57.60;;;;;;5062152;28;20602;-79
2023/05/04 00:24:57;;;;;;;5.60;2.80;;;10.10;57.60;;;;;;5040791;28;20061;-78
2023/05/04 00:27:24;;;;;;;8.93;3.40;;;10.10;57.70;;;;;;5045348;28;20504;-78
2023/05/04 00:29:51;;;;;;;7.40;2.90;;;10.00;57.90;;;;;;5042186;28;20427;-78
2023/05/04 00:32:18;;;;;;;6.33;3.00;;;10.00;57.80;;;;;;5046747;28;20139;-78
2023/05/04 00:34:45;;;;;;;9.18;3.40;;;10.00;58.00;;;;;;5047260;28;20128;-78
2023/05/04 00:37:13;;;;;;;10.07;3.42;;;10.00;58.00;;;;;;5049437;28;20148;-78
2023/05/04 00:39:40;;;;;;;6.45;3.00;;;10.00;58.10;;;;;;5032601;28;20160;-78
2023/05/04 00:42:07;;;;;;;7.40;3.03;;;10.00;58.10;;;;;;5048998;28;20149;-78
2023/05/04 00:44:34;;;;;;;7.37;3.20;;;10.00;58.10;;;;;;5023782;28;20050;-79
2023/05/04 00:47:03;;;;;;;6.82;2.97;;;9.90;58.10;;;;;;5056897;28;20045;-79
2023/05/04 00:49:30;;;;;;;10.25;3.70;;;9.90;58.30;;;;;;5032125;28;20045;-79
2023/05/04 00:51:57;;;;;;;8.23;2.95;;;9.80;58.40;;;;;;5029794;28;20057;-79
2023/05/04 00:54:26;;;;;;;6.95;3.10;;;9.80;58.50;;;;;;5041790;28;20053;-79
2023/05/04 00:56:53;;;;;;;9.17;3.47;;;9.80;58.60;;;;;;5044540;28;20085;-78
2023/05/04 00:59:20;;;;;;;7.18;3.10;;;9.80;58.60;;;;;;5030649;28;20589;-77
2023/05/04 01:01:47;;;;;;;10.30;3.67;;;9.80;58.60;;;;;;5030387;28;20045;-77
2023/05/04 01:04:14;;;;;;;7.68;3.17;;;9.70;58.60;;;;;;5048706;28;20056;-77
2023/05/04 01:06:46;;;;;;;6.97;3.30;;;9.70;58.70;;;;;;5030524;28;20053;-77
2023/05/04 01:09:21;;;;;;;6.90;2.70;;;9.70;58.90;;;;;;5030921;28;20065;-77
2023/05/04 01:11:55;;;;;;;8.55;3.50;;;9.60;59.00;;;;;;5048456;28;20054;-77
2023/05/04 01:14:22;;;;;;;8.75;3.42;;;9.50;59.20;;;;;;5032328;28;20053;-77
2023/05/04 01:16:53;;;;;;;8.07;3.15;;;9.50;59.20;;;;;;5045246;28;20056;-77
2023/05/04 01:19:20;;;;;;;6.63;2.83;;;9.50;59.40;;;;;;5032059;28;20045;-77
2023/05/04 01:21:48;;;;;;;6.33;3.00;;;9.50;59.40;;;;;;5031764;28;20049;-77
2023/05/04 01:24:16;;;;;;;6.75;2.95;;;9.50;59.40;;;;;;5048170;28;20042;-77
2023/05/04 01:26:46;;;;;;;7.65;3.40;;;9.40;59.40;;;;;;5028053;28;20042;-77
2023/05/04 01:29:18;;;;;;;8.30;3.42;;;9.40;59.50;;;;;;5043060;28;20060;-77
2023/05/04 01:31:46;;;;;;;7.32;2.85;;;9.40;59.50;;;;;;5031472;28;20139;-77
2023/05/04 01:34:14;;;;;;;6.97;3.10;;;9.40;59.60;;;;;;5031529;28;20136;-77
2023/05/04 01:36:42;;;;;;;8.07;3.13;;;9.40;59.70;;;;;;5029105;28;20045;-77
2023/05/04 01:39:10;;;;;;;7.68;3.53;;;9.40;59.80;;;;;;5048220;28;20041;-77
2023/05/04 01:41:37;;;;;;;8.13;3.05;;;9.40;59.90;;;;;;5045841;28;20484;-77
2023/05/04 01:44:05;;;;;;;8.52;3.10;;;9.30;60.00;;;;;;5048549;28;20599;-77
2023/05/04 01:46:32;;;;;;;6.63;3.10;;;9.30;60.10;;;;;;5031704;28;20045;-77
2023/05/04 01:49:00;;;;;;;10.40;3.00;;;9.40;60.10;;;;;;5044010;28;20049;-77
2023/05/04 01:51:27;;;;;;;7.05;3.20;;;9.30;60.10;;;;;;5047377;28;20054;-77
2023/05/04 01:53:54;;;;;;;8.82;3.45;;;9.30;60.10;;;;;;5047792;28;20068;-77
2023/05/04 01:56:22;;;;;;;9.38;3.33;;;9.20;60.40;;;;;;5048651;28;20049;-77
2023/05/04 01:58:49;;;;;;;9.57;3.50;;;9.20;60.50;;;;;;5014528;28;20077;-77
2023/05/04 02:01:16;;;;;;;8.18;3.75;;;9.10;60.60;;;;;;5047737;28;20117;-77
2023/05/04 02:03:43;;;;;;;9.52;3.58;;;9.10;60.70;;;;;;5031198;28;20049;-77
2023/05/04 02:06:10;;;;;;;8.43;3.38;;;9.10;60.70;;;;;;5047871;28;20053;-77
2023/05/04 02:08:37;;;;;;;6.95;3.33;;;9.10;60.80;;;;;;5047900;28;20606;-77
2023/05/04 02:11:04;;;;;;;8.00;3.70;;;9.10;60.80;;;;;;5047690;28;20050;-77
2023/05/04 02:13:33;;;;;;;9.23;3.70;;;9.10;60.80;;;;;;5047760;28;20045;-77
2023/05/04 02:16:00;;;;;;;9.60;3.42;;;9.00;60.90;;;;;;5045677;28;20496;-77
2023/05/04 02:18:27;;;;;;;8.63;3.50;;;9.00;61.00;;;;;;5047862;28;20130;-77
2023/05/04 02:20:54;;;;;;;9.68;3.88;;;9.00;61.00;;;;;;5046814;28;20531;-77
2023/05/04 02:23:21;;;;;;;9.43;3.83;;;9.00;61.10;;;;;;5047628;28;20533;-77
2023/05/04 02:25:48;;;;;;;8.55;3.78;;;9.00;61.10;;;;;;5046798;28;20048;-77
2023/05/04 02:28:15;;;;;;;8.68;3.40;;;9.00;61.30;;;;;;5031469;28;20057;-77
2023/05/04 02:30:44;;;;;;;10.02;3.75;;;9.00;61.20;;;;;;5048952;28;20534;-77
2023/05/04 02:33:10;;;;;;;8.10;3.50;;;9.00;61.40;;;;;;5029113;28;20056;-77
2023/05/04 02:35:37;;;;;;;9.73;4.00;;;9.00;61.40;;;;;;5047726;28;20079;-77
2023/05/04 02:38:05;;;;;;;9.00;4.00;;;8.90;61.60;;;;;;5030915;28;20052;-77
2023/05/04 02:40:32;;;;;;;9.45;4.05;;;8.90;61.60;;;;;;5046715;28;20057;-77
2023/05/04 02:42:59;;;;;;;7.65;3.40;;;8.90;61.70;;;;;;5030508;28;20100;-77
2023/05/04 02:45:27;;;;;;;9.20;4.30;;;8.90;61.80;;;;;;5047345;28;20108;-76
2023/05/04 02:47:55;;;;;;;9.73;4.07;;;8.90;61.80;;;;;;5010953;28;20085;-77
2023/05/04 02:50:22;;;;;;;7.85;3.50;;;8.90;61.90;;;;;;5031479;28;20054;-77
2023/05/04 02:52:49;;;;;;;7.22;4.03;;;8.80;62.00;;;;;;5046609;28;20055;-77
2023/05/04 02:55:16;;;;;;;10.77;4.60;;;8.80;62.20;;;;;;5046570;28;20057;-77
2023/05/04 02:57:43;;;;;;;7.88;3.75;;;8.70;62.30;;;;;;5047206;28;20050;-76
2023/05/04 03:00:10;;;;;;;10.87;4.03;;;8.60;62.40;;;;;;5030433;28;20058;-77
2023/05/04 03:02:37;;;;;;;8.98;3.75;;;8.60;62.60;;;;;;5030097;28;20096;-77
2023/05/04 03:05:06;;;;;;;8.27;3.75;;;8.60;62.60;;;;;;5046701;28;20244;-76
2023/05/04 03:07:33;;;;;;;8.07;3.80;;;8.60;62.70;;;;;;5046641;28;20487;-77
2023/05/04 03:10:00;;;;;;;8.65;4.00;;;8.60;62.80;;;;;;5030155;28;20578;-77
2023/05/04 03:12:27;;;;;;;9.20;4.00;;;8.60;63.00;;;;;;5046610;28;20049;-77
2023/05/04 03:14:54;;;;;;;9.77;4.15;;;8.60;63.00;;;;;;5029671;28;20053;-77
2023/05/04 03:17:21;;;;;;;9.05;4.25;;;8.60;62.90;;;;;;5046884;28;20484;-76
2023/05/04 03:19:48;;;;;;;9.90;4.20;;;8.60;62.90;;;;;;5046394;28;20037;-77
2023/05/04 03:22:16;;;;;;;10.48;3.83;;;8.60;62.90;;;;;;5029728;28;20499;-77
2023/05/04 03:24:44;;;;;;;12.13;4.13;;;8.60;63.00;;;;;;5028785;28;20513;-76
2023/05/04 03:27:12;;;;;;;11.52;4.25;;;8.60;63.00;;;;;;5030337;28;20056;-76
2023/05/04 03:29:39;;;;;;;8.52;3.97;;;8.60;63.00;;;;;;5046589;28;20052;-76
2023/05/04 03:32:06;;;;;;;8.50;4.10;;;8.60;63.00;;;;;;5040196;28;20454;-77
2023/05/04 03:34:33;;;;;;;10.68;4.30;;;8.60;63.10;;;;;;5009732;28;20053;-77
2023/05/04 03:37:04;;;;;;;9.37;4.30;;;8.60;63.10;;;;;;5026699;28;20053;-76
2023/05/04 03:39:32;;;;;;;8.57;3.80;;;8.60;63.10;;;;;;5029609;28;20049;-76
2023/05/04 03:41:59;;;;;;;9.77;3.90;;;8.60;63.20;;;;;;5027784;28;20467;-76
2023/05/04 03:44:26;;;;;;;8.93;4.30;;;8.60;63.20;;;;;;5047830;28;20049;-76
2023/05/04 03:46:54;;;;;;;10.50;4.00;;;8.60;63.20;;;;;;5045810;28;20049;-77
2023/05/04 03:49:21;;;;;;;8.43;3.83;;;8.60;63.20;;;;;;5029534;28;20042;-77
2023/05/04 03:51:48;;;;;;;9.55;4.05;;;8.60;63.30;;;;;;5025364;28;20586;-77
2023/05/04 03:54:15;;;;;;;9.98;3.75;;;8.60;63.20;;;;;;5009753;28;20046;-76
2023/05/04 03:56:43;;;;;;;9.73;3.97;;;8.60;63.20;;;;;;5015358;28;20140;-76
2023/05/04 03:59:11;;;;;;;9.27;4.20;;;8.60;63.30;;;;;;5027843;28;20073;-77
2023/05/04 04:01:38;;;;;;;9.40;3.90;;;8.60;63.20;;;;;;5043073;28;20050;-77
2023/05/04 04:04:05;;;;;;;11.13;3.92;;;8.60;63.20;;;;;;5046080;28;20083;-77
2023/05/04 04:06:32;;;;;;;8.88;3.70;;;8.60;63.20;;;;;;5045596;28;20049;-76
2023/05/04 04:08:59;;;;;;;10.13;4.25;;;8.60;63.20;;;;;;5049066;28;20581;-77
2023/05/04 04:11:26;;;;;;;9.32;4.75;;;8.60;63.20;;;;;;5032109;28;20046;-77
2023/05/04 04:13:55;;;;;;;10.43;3.87;;;8.60;63.20;;;;;;5049352;28;20049;-76
2023/05/04 04:16:22;;;;;;;11.70;3.90;;;8.60;63.30;;;;;;5044768;28;20055;-77
2023/05/04 04:18:49;;;;;;;9.25;4.25;;;8.60;63.20;;;;;;5032599;28;20423;-77
2023/05/04 04:21:16;;;;;;;9.95;4.15;;;8.60;63.30;;;;;;5032125;28;20046;-76
2023/05/04 04:23:43;;;;;;;9.75;4.35;;;8.60;63.40;;;;;;5049117;28;20045;-77
2023/05/04 04:26:10;;;;;;;12.73;4.33;;;8.60;63.40;;;;;;5047824;28;20045;-77
2023/05/04 04:28:37;;;;;;;9.50;4.07;;;8.60;63.50;;;;;;5048744;28;20518;-77
2023/05/04 04:31:05;;;;;;;9.20;4.18;;;8.60;63.40;;;;;;5048703;28;20053;-77
2023/05/04 04:33:33;;;;;;;10.60;4.25;;;8.60;63.50;;;;;;5047773;28;20116;-77
2023/05/04 04:36:00;;;;;;;9.05;4.10;;;8.60;63.60;;;;;;5032913;28;20058;-76
2023/05/04 04:38:27;;;;;;;8.60;3.73;;;8.60;63.60;;;;;;5049320;28;20069;-77
2023/05/04 04:40:54;;;;;;;10.23;4.50;;;8.60;63.60;;;;;;5048660;28;20052;-77
2023/05/04 04:43:21;;;;;;;9.98;4.43;;;8.60;63.70;;;;;;5049270;28;20600;-77
2023/05/04 04:45:48;;;;;;;10.70;4.13;;;8.60;63.70;;;;;;5050735;28;20053;-77
2023/05/04 04:48:17;;;;;;;9.32;4.32;;;8.60;63.60;;;;;;5049198;28;20052;-77
2023/05/04 04:50:44;;;;;;;9.07;4.20;;;8.60;63.80;;;;;;5031311;28;20159;-76
2023/05/04 04:53:11;;;;;;;9.52;4.40;;;8.60;63.70;;;;;;5032657;28;20046;-77
2023/05/04 04:55:38;;;;;;;9.45;4.07;;;8.60;63.80;;;;;;5049234;28;20453;-77
2023/05/04 04:58:05;;;;;;;10.02;4.25;;;8.60;63.80;;;;;;5049146;28;20065;-76
2023/05/04 05:00:32;;;;;;;10.98;4.03;;;8.60;63.90;;;;;;5050255;28;20060;-77
2023/05/04 05:02:59;;;;;;;9.47;4.47;;;8.60;64.10;;;;;;5046922;28;20053;-76
2023/05/04 05:05:27;;;;;;;10.52;4.05;;;8.60;64.20;;;;;;5045580;28;20100;-76
2023/05/04 05:07:55;;;;;;;10.68;4.57;;;8.50;64.30;;;;;;5041782;28;20084;-78
2023/05/04 05:10:22;;;;;;;9.77;4.28;;;8.50;64.30;;;;;;5040369;28;20038;-78
2023/05/04 05:12:49;;;;;;;10.38;4.78;;;8.50;64.30;;;;;;5039603;28;20061;-77
2023/05/04 05:15:16;;;;;;;11.83;4.50;;;8.50;64.50;;;;;;5041742;28;20054;-77
2023/05/04 05:17:43;;;;;;;8.88;4.43;;;8.50;64.50;;;;;;5043313;28;20068;-77
2023/05/04 05:20:11;;;;;;;10.85;4.70;;;8.60;64.40;;;;;;5049307;28;20860;-77
2023/05/04 05:22:40;;;;;;;9.00;4.18;;;8.50;64.50;;;;;;5040281;28;20054;-77
2023/05/04 05:25:07;;;;;;;12.27;4.72;;;8.60;64.60;;;;;;5055152;28;20879;-77
2023/05/04 05:27:35;;;;;;;11.90;4.93;;;8.60;64.70;;;;;;5038037;28;20133;-77
2023/05/04 05:30:04;;;;;;;12.82;4.63;;;8.60;64.70;;;;;;5039827;28;20054;-77
2023/05/04 05:32:31;;;;;;;11.25;5.25;;;8.60;65.00;;;;;;5037635;28;20103;-77
2023/05/04 05:34:58;;;;;;;10.48;4.80;;;8.60;65.00;;;;;;5023623;28;20112;-77
2023/05/04 05:37:26;;;;;;;10.70;4.55;;;8.60;65.00;;;;;;5038003;28;20037;-77
2023/05/04 05:39:54;;;;;;;9.37;4.47;;;8.60;65.10;;;;;;5038298;28;20209;-77
2023/05/04 05:42:22;;;;;;;11.15;5.00;;;8.60;65.00;;;;;;5039126;28;21011;-77
2023/05/04 05:44:49;;;;;;;9.70;4.53;;;8.60;65.20;;;;;;5040170;28;20057;-77
2023/05/04 05:47:17;;;;;;;13.25;5.20;;;8.60;65.20;;;;;;5039753;28;20050;-77
2023/05/04 05:49:44;;;;;;;9.85;4.43;;;8.60;65.30;;;;;;5046446;28;20061;-77
2023/05/04 05:52:11;;;;;;;11.40;4.53;;;8.60;65.40;;;;;;5023673;28;20041;-77
2023/05/04 05:54:38;;;;;;;11.27;5.03;;;8.60;65.30;;;;;;5042709;28;20054;-77
2023/05/04 05:57:06;;;;;;;10.95;4.60;;;8.60;65.50;;;;;;5041726;28;20045;-77
2023/05/04 05:59:33;;;;;;;11.07;5.57;;;8.70;65.50;;;;;;5038054;28;20137;-77
2023/05/04 06:02:00;;;;;;;11.45;4.97;;;8.70;65.60;;;;;;5026877;28;20069;-77
2023/05/04 06:04:27;;;;;;;12.80;5.00;;;8.70;65.80;;;;;;5047543;28;20057;-77
2023/05/04 06:06:55;;;;;;;11.85;5.35;;;8.80;66.00;;;;;;5048384;28;20194;-77
2023/05/04 06:09:22;;;;;;;11.90;5.03;;;8.80;66.10;;;;;;5048030;28;20053;-77
2023/05/04 06:11:49;;;;;;;12.10;5.57;;;8.80;66.20;;;;;;5043522;28;20053;-78
2023/05/04 06:14:18;;;;;;;13.30;5.30;;;8.80;66.20;;;;;;5039493;28;20055;-77
2023/05/04 06:16:45;;;;;;;11.50;5.27;;;8.80;66.20;;;;;;5047470;28;20456;-77
2023/05/04 06:19:12;;;;;;;10.10;4.90;;;8.80;66.30;;;;;;5041933;28;20050;-77
2023/05/04 06:21:39;;;;;;;35.58;7.03;;;8.80;66.60;;;;;;5047522;28;20518;-77
2023/05/04 06:24:06;;;;;;;11.43;5.25;;;8.90;66.70;;;;;;5040667;28;20041;-77
2023/05/04 06:26:33;;;;;;;10.20;5.10;;;8.90;66.90;;;;;;5040273;28;20546;-77
2023/05/04 06:29:00;;;;;;;8.60;4.67;;;8.90;66.80;;;;;;5039995;28;20054;-77
2023/05/04 06:31:29;;;;;;;14.55;5.75;;;8.90;66.80;;;;;;5037810;28;20740;-77
2023/05/04 06:33:56;;;;;;;11.05;4.88;;;8.90;66.90;;;;;;5039444;28;20432;-77
2023/05/04 06:36:24;;;;;;;12.52;5.40;;;8.80;67.00;;;;;;5037712;28;20767;-77
2023/05/04 06:38:51;;;;;;;11.82;4.90;;;8.90;67.10;;;;;;5025191;28;20052;-77
2023/05/04 06:41:19;;;;;;;12.03;5.53;;;8.90;67.30;;;;;;5047042;28;20056;-77
2023/05/04 06:43:46;;;;;;;10.63;5.47;;;8.90;67.30;;;;;;5047029;28;20057;-77
2023/05/04 06:46:13;;;;;;;12.98;5.45;;;8.90;67.50;;;;;;5048879;28;20056;-77
2023/05/04 06:48:41;;;;;;;11.98;5.38;;;8.90;67.60;;;;;;5047300;28;20548;-77
2023/05/04 06:51:08;;;;;;;12.98;5.63;;;9.00;67.60;;;;;;5039744;28;20054;-77
2023/05/04 06:53:35;;;;;;;12.23;5.47;;;9.00;67.80;;;;;;5060575;28;20058;-77
2023/05/04 06:56:03;;;;;;;13.23;5.90;;;9.00;67.70;;;;;;5046750;28;20090;-77
2023/05/04 06:58:30;;;;;;;12.32;5.70;;;9.00;67.80;;;;;;5045584;28;20056;-77
2023/05/04 07:00:57;;;;;;;13.20;5.43;;;9.00;67.80;;;;;;5046376;28;20045;-77
2023/05/04 07:03:24;;;;;;;10.40;5.38;;;9.10;67.90;;;;;;5047340;28;20064;-78
2023/05/04 07:06:17;;;;;;;11.87;5.33;;;9.10;67.80;;;;;;5040369;28;20050;-78
2023/05/04 07:08:44;;;;;;;13.48;4.90;;;9.20;67.90;;;;;;5039585;28;20047;-77
2023/05/04 07:11:11;;;;;;;11.65;4.88;;;9.20;68.00;;;;;;5024988;28;20046;-78
2023/05/04 07:13:39;;;;;;;11.38;5.63;;;9.20;68.00;;;;;;5037658;28;21122;-78
2023/05/04 07:16:07;;;;;;;13.50;5.57;;;9.30;68.00;;;;;;5038508;28;20053;-78
2023/05/04 07:18:34;;;;;;;15.17;6.07;;;9.40;68.00;;;;;;5040035;28;20080;-78
2023/05/04 07:21:02;;;;;;;10.20;5.20;;;9.40;68.10;;;;;;5044018;28;20566;-77
2023/05/04 07:23:31;;;;;;;10.57;4.97;;;9.40;68.10;;;;;;5035206;28;20065;-77
2023/05/04 07:25:58;;;;;;;11.75;5.20;;;9.50;68.20;;;;;;5041118;28;20104;-78
2023/05/04 07:28:25;;;;;;;11.57;5.63;;;9.50;68.30;;;;;;5044625;28;20049;-78
2023/05/04 07:30:52;;;;;;;11.20;5.40;;;9.60;68.20;;;;;;5042362;28;20046;-78
2023/05/04 07:33:19;;;;;;;11.68;5.70;;;9.60;68.30;;;;;;5024209;28;20500;-78
2023/05/04 07:35:46;;;;;;;10.05;4.80;;;9.70;68.30;;;;;;5038310;28;20077;-78
2023/05/04 07:38:13;;;;;;;11.82;5.85;;;9.70;68.30;;;;;;5043288;28;20082;-78
2023/05/04 07:40:42;;;;;;;14.82;4.95;;;9.80;68.20;;;;;;5045368;28;20057;-80
2023/05/04 07:43:09;;;;;;;12.70;5.40;;;9.80;68.30;;;;;;5037321;28;20105;-77
2023/05/04 07:45:36;;;;;;;11.15;5.13;;;9.80;68.20;;;;;;5042643;28;20145;-78
2023/05/04 07:48:03;;;;;;;11.50;5.18;;;10.00;68.20;;;;;;5044827;28;20049;-78
2023/05/04 07:50:30;;;;;;;11.02;5.30;;;10.00;68.30;;;;;;5036787;28;20060;-77
2023/05/04 07:52:57;;;;;;;12.15;5.68;;;10.00;68.30;;;;;;5034780;28;20049;-77
2023/05/04 07:55:25;;;;;;;15.73;5.73;;;10.10;68.40;;;;;;5039367;28;20530;-77
2023/05/04 07:57:53;;;;;;;10.45;5.50;;;10.10;68.40;;;;;;5045209;28;20085;-80
2023/05/04 08:00:21;;;;;;;12.65;5.13;;;10.20;68.40;;;;;;5036845;28;20050;-77
2023/05/04 08:02:50;;;;;;;12.55;5.18;;;10.20;68.40;;;;;;5040161;28;20061;-77
2023/05/04 08:05:17;;;;;;;13.30;5.53;;;10.30;68.30;;;;;;5042554;28;20594;-77
2023/05/04 08:07:44;;;;;;;10.33;5.13;;;10.30;68.30;;;;;;5045892;28;20181;-78
2023/05/04 08:10:12;;;;;;;10.85;4.95;;;10.40;68.30;;;;;;5043956;28;20045;-78
2023/05/04 08:12:40;;;;;;;10.65;5.22;;;10.50;68.30;;;;;;5042681;28;20105;-78
2023/05/04 08:15:10;;;;;;;11.70;5.63;;;10.60;68.20;;;;;;5039375;28;20054;-78
2023/05/04 08:17:38;;;;;;;12.98;6.38;;;10.60;68.30;;;;;;5039869;28;20129;-77
2023/05/04 08:20:06;;;;;;;11.97;5.97;;;10.70;68.10;;;;;;5040635;28;20136;-77
2023/05/04 08:22:33;;;;;;;9.45;5.35;;;10.80;68.20;;;;;;5038984;28;20049;-77
2023/05/04 08:25:00;;;;;;;10.77;5.47;;;10.90;68.10;;;;;;5046043;28;20608;-77
2023/05/04 08:27:28;;;;;;;12.73;5.35;;;10.90;67.90;;;;;;5062509;28;20495;-77
2023/05/04 08:29:57;;;;;;;11.70;5.60;;;11.00;67.80;;;;;;5035998;28;20128;-77
2023/05/04 08:32:25;;;;;;;12.03;5.43;;;11.00;67.80;;;;;;5046028;28;20053;-77
2023/05/04 08:34:52;;;;;;;11.52;5.78;;;11.10;67.80;;;;;;5045912;28;20041;-78
2023/05/04 08:37:20;;;;;;;12.73;5.70;;;11.10;67.70;;;;;;5035212;28;20132;-78
2023/05/04 08:39:47;;;;;;;11.25;5.40;;;11.30;67.70;;;;;;5035469;28;20049;-78
2023/05/04 08:42:14;;;;;;;9.90;5.50;;;11.30;67.70;;;;;;5041225;28;20065;-78
2023/05/04 08:44:41;;;;;;;10.27;5.10;;;11.40;67.50;;;;;;5045566;28;20061;-78
2023/05/04 08:47:08;;;;;;;9.80;5.32;;;11.40;67.10;;;;;;5027888;28;20049;-77
2023/05/04 08:49:37;;;;;;;9.52;5.07;;;11.50;67.10;;;;;;5040222;28;20137;-78
2023/05/04 08:52:08;;;;;;;10.05;5.07;;;11.50;67.00;;;;;;5042981;28;20846;-77
2023/05/04 08:54:38;;;;;;;9.25;5.70;;;11.60;66.70;;;;;;5037603;28;20041;-78
2023/05/04 08:57:06;;;;;;;11.00;5.47;;;11.70;66.60;;;;;;5025491;28;20053;-77
2023/05/04 08:59:33;;;;;;;11.88;5.03;;;11.70;66.50;;;;;;5046578;28;20136;-78
2023/05/04 09:02:01;;;;;;;10.27;5.00;;;11.90;66.70;;;;;;5038488;28;20080;-77
2023/05/04 09:04:30;;;;;;;9.10;4.63;;;11.90;66.80;;;;;;5046181;28;20582;-77
2023/05/04 09:06:58;;;;;;;9.63;4.75;;;12.00;66.70;;;;;;5046667;28;20064;-77
2023/05/04 09:09:28;;;;;;;11.37;5.70;;;12.10;66.60;;;;;;5042302;28;20046;-78
2023/05/04 09:11:55;;;;;;;10.30;5.32;;;12.20;66.60;;;;;;5041456;28;20054;-78
2023/05/04 09:14:31;;;;;;;12.07;5.00;;;12.30;66.50;;;;;;5049106;28;20136;-78
2023/05/04 09:16:58;;;;;;;10.80;5.03;;;12.40;66.20;;;;;;5038476;28;20054;-79
2023/05/04 09:19:32;;;;;;;9.73;4.72;;;12.50;66.20;;;;;;5027861;28;20899;-78
2023/05/04 09:22:00;;;;;;;8.40;4.63;;;12.50;65.80;;;;;;5039814;28;20587;-77
2023/05/04 09:24:27;;;;;;;8.07;4.63;;;12.60;65.60;;;;;;5018397;28;20046;-77
2023/05/04 09:26:54;;;;;;;8.48;4.20;;;12.70;65.40;;;;;;5045385;28;20136;-77
2023/05/04 09:29:24;;;;;;;9.02;4.80;;;12.80;65.10;;;;;;5042616;28;20049;-77
2023/05/04 09:31:52;;;;;;;8.27;4.68;;;12.90;65.10;;;;;;5043493;28;20531;-77
2023/05/04 09:34:21;;;;;;;12.20;5.10;;;13.00;65.20;;;;;;5042299;28;20557;-77
2023/05/04 09:37:00;;;;;;;9.48;4.57;;;13.10;65.10;;;;;;5042827;28;20415;-78
2023/05/04 09:39:27;;;;;;;9.18;4.47;;;13.20;64.60;;;;;;5039486;28;20056;-77
2023/05/04 09:41:55;;;;;;;10.18;4.40;;;13.30;64.30;;;;;;5040326;28;20057;-77
2023/05/04 09:44:24;;;;;;;9.70;4.50;;;13.50;64.10;;;;;;5042112;28;20133;-76
2023/05/04 09:46:55;;;;;;;10.07;4.87;;;13.50;63.90;;;;;;5041449;28;20128;-78
2023/05/04 09:49:32;;;;;;;9.63;4.60;;;13.60;63.90;;;;;;5041024;28;20523;-77
2023/05/04 09:52:01;;;;;;;8.88;4.43;;;13.70;63.70;;;;;;5040045;28;20518;-79
2023/05/04 09:54:31;;;;;;;19.92;4.95;;;13.70;63.70;;;;;;5048018;28;20090;-79
2023/05/04 09:57:09;;;;;;;9.82;5.07;;;13.90;63.50;;;;;;5047150;28;20140;-78
2023/05/04 09:59:36;;;;;;;10.47;4.80;;;14.00;63.30;;;;;;5040626;28;20058;-78
2023/05/04 10:02:05;;;;;;;8.50;4.10;;;14.10;63.10;;;;;;5044229;28;20049;-79
2023/05/04 10:04:32;;;;;;;14.60;4.88;;;14.20;63.00;;;;;;5043384;28;20463;-79
2023/05/04 10:07:03;;;;;;;9.73;4.53;;;14.30;62.80;;;;;;5040293;28;20053;-79
2023/05/04 10:09:31;;;;;;;9.35;4.25;;;14.40;62.70;;;;;;5046202;28;20400;-79
2023/05/04 10:12:00;;;;;;;9.20;4.17;;;14.50;62.30;;;;;;5044446;28;20053;-79
2023/05/04 10:14:30;;;;;;;6.95;3.40;;;14.60;61.80;;;;;;5046446;28;20046;-79
2023/05/04 10:17:04;;;;;;;8.02;4.28;;;14.70;61.60;;;;;;5046084;28;20050;-78
2023/05/04 10:19:52;;;;;;;7.75;3.70;;;14.80;61.10;;;;;;5047655;28;20055;-78
2023/05/04 10:22:36;;;;;;;6.57;3.42;;;14.90;61.00;;;;;;5043401;28;20055;-78
2023/05/04 10:25:26;;;;;;;7.00;3.27;;;15.00;60.50;;;;;;5047960;28;20053;-78
2023/05/04 10:28:02;;;;;;;7.30;3.55;;;15.00;59.90;;;;;;5040516;28;20063;-77
2023/05/04 10:30:29;;;;;;;9.00;3.75;;;15.20;59.90;;;;;;5044464;28;20082;-79
2023/05/04 10:32:57;;;;;;;9.27;3.80;;;15.30;59.90;;;;;;5037827;28;20104;-79
2023/05/04 10:35:25;;;;;;;8.45;3.75;;;15.40;59.60;;;;;;5040705;28;20136;-79
2023/05/04 10:37:55;;;;;;;6.93;3.60;;;15.50;59.50;;;;;;5036331;28;20062;-81
2023/05/04 10:40:37;;;;;;;8.80;3.78;;;15.60;59.10;;;;;;5034523;28;20053;-78
2023/05/04 10:43:04;;;;;;;13.48;3.72;;;15.60;58.90;;;;;;5025386;28;20045;-78
2023/05/04 10:45:36;;;;;;;12.73;4.60;;;15.80;58.60;;;;;;5042405;28;20268;-79
2023/05/04 10:48:04;;;;;;;14.05;4.07;;;15.80;57.90;;;;;;5040388;28;20049;-78
2023/05/04 10:53:34;;;;;;;11.68;4.00;;;16.00;57.60;;;;;;5045570;28;20052;-78
2023/05/04 10:56:01;;;;;;;8.25;3.60;;;16.10;57.30;;;;;;5027976;28;20052;-77
2023/05/04 10:58:29;;;;;;;11.15;3.70;;;16.20;56.90;;;;;;5039497;28;20064;-79
2023/05/04 11:00:56;;;;;;;8.07;3.88;;;16.30;57.20;;;;;;5028628;28;21030;-78
2023/05/04 11:03:24;;;;;;;7.37;3.93;;;16.40;56.90;;;;;;5028457;28;20898;-78
2023/05/04 11:05:53;;;;;;;7.97;4.00;;;16.40;57.20;;;;;;5029989;28;20056;-78
2023/05/04 11:08:22;;;;;;;7.18;4.15;;;16.50;56.90;;;;;;5013475;28;20053;-78
2023/05/04 11:11:06;;;;;;;6.50;3.65;;;16.60;55.90;;;;;;5048802;28;20057;-78
2023/05/04 11:13:34;;;;;;;14.68;4.30;;;16.60;55.70;;;;;;5015119;28;20049;-79
2023/05/04 11:16:01;;;;;;;7.17;3.80;;;16.70;55.60;;;;;;5038231;28;20054;-78
2023/05/04 11:18:30;;;;;;;8.70;3.45;;;16.80;55.50;;;;;;5045723;28;20472;-78
2023/05/04 11:20:58;;;;;;;7.55;3.53;;;16.80;55.70;;;;;;5050048;28;20063;-80
2023/05/04 11:23:25;;;;;;;9.57;3.60;;;16.90;55.40;;;;;;5049170;28;20128;-79
2023/05/04 11:25:54;;;;;;;7.75;3.70;;;16.90;55.10;;;;;;5028565;28;20593;-78
2023/05/04 11:28:31;;;;;;;9.37;3.97;;;17.00;54.50;;;;;;5044259;28;20465;-78
2023/05/04 11:30:58;;;;;;;6.40;3.22;;;17.00;53.90;;;;;;5016708;28;20104;-78
2023/05/04 11:33:25;;;;;;;8.52;4.18;;;17.10;54.00;;;;;;5048339;28;20045;-80
2023/05/04 11:36:00;;;;;;;6.82;3.47;;;17.20;54.30;;;;;;5046341;28;20475;-77
2023/05/04 11:38:27;;;;;;;7.03;3.50;;;17.20;54.10;;;;;;5047329;28;20522;-78
2023/05/04 11:40:55;;;;;;;7.47;3.30;;;17.30;53.70;;;;;;5047386;28;21085;-78
2023/05/04 11:43:23;;;;;;;9.68;3.70;;;17.40;53.70;;;;;;5033089;28;20562;-78
2023/05/04 11:45:50;;;;;;;9.02;3.60;;;17.50;53.00;;;;;;5033057;28;20045;-79
2023/05/04 11:48:18;;;;;;;8.07;3.20;;;17.50;52.50;;;;;;5034435;28;20163;-78
2023/05/04 11:50:46;;;;;;;8.00;3.47;;;17.60;52.70;;;;;;5050157;28;20057;-77
2023/05/04 11:53:13;;;;;;;8.90;3.77;;;17.60;53.20;;;;;;5042184;28;20076;-78
2023/05/04 11:55:41;;;;;;;31.83;5.35;;;17.80;52.80;;;;;;5021060;28;20061;-78
2023/05/04 11:58:10;;;;;;;9.68;3.60;;;17.80;52.70;;;;;;5040211;28;20038;-78
2023/05/04 12:00:40;;;;;;;8.35;3.70;;;17.80;53.30;;;;;;5021627;28;20451;-79
2023/05/04 12:03:08;;;;;;;9.23;3.75;;;17.90;52.50;;;;;;5036159;28;20061;-79
2023/05/04 12:05:36;;;;;;;8.30;4.00;;;18.00;52.50;;;;;;5022609;28;20136;-80
2023/05/04 12:08:06;;;;;;;7.50;3.35;;;18.00;52.30;;;;;;5044604;28;20772;-80
2023/05/04 12:10:34;;;;;;;8.10;3.60;;;18.10;52.10;;;;;;5039071;28;20049;-79
2023/05/04 12:13:01;;;;;;;8.93;3.83;;;18.20;51.60;;;;;;5045616;28;20073;-80
2023/05/04 12:15:31;;;;;;;6.88;3.17;;;18.30;51.00;;;;;;5008127;28;20512;-80
2023/05/04 12:17:58;;;;;;;6.73;3.00;;;18.30;50.40;;;;;;5045987;22;20032;-80
2023/05/04 12:20:28;;;;;;;8.00;3.42;;;18.40;50.10;;;;;;5042573;28;20049;-80
2023/05/04 12:22:55;;;;;;;8.27;3.70;;;18.40;50.60;;;;;;5047993;28;20106;-80
2023/05/04 12:25:23;;;;;;;8.10;3.70;;;18.50;50.60;;;;;;5046575;28;20128;-80
2023/05/04 12:27:50;;;;;;;6.28;3.28;;;18.60;50.20;;;;;;5067403;28;20064;-79
2023/05/04 12:30:18;;;;;;;8.57;2.93;;;18.60;50.10;;;;;;5045734;28;20072;-80
2023/05/04 12:32:46;;;;;;;7.57;3.40;;;18.70;49.70;;;;;;5034919;28;20053;-80
2023/05/04 12:35:13;;;;;;;8.40;3.45;;;18.80;49.80;;;;;;5068636;28;20597;-79
2023/05/04 12:37:41;;;;;;;10.35;3.25;;;18.80;50.00;;;;;;5051930;28;20433;-80
2023/05/04 12:40:09;;;;;;;7.25;3.15;;;18.90;49.60;;;;;;5051327;28;20060;-80
2023/05/04 12:42:36;;;;;;;7.23;3.20;;;19.00;49.50;;;;;;5040811;28;20786;-80
2023/05/04 12:45:04;;;;;;;7.05;3.40;;;19.00;49.40;;;;;;5031980;28;20060;-80
2023/05/04 12:47:31;;;;;;;6.93;3.35;;;19.10;48.90;;;;;;5026978;28;20049;-80
2023/05/04 12:50:01;;;;;;;5.63;3.30;;;19.10;49.10;;;;;;5030875;28;20053;-80
2023/05/04 12:52:27;;;;;;;8.45;3.75;;;19.20;49.00;;;;;;5050496;28;20059;-80
2023/05/04 12:54:54;;;;;;;7.10;3.43;;;19.20;48.70;;;;;;5051443;28;20045;-80